Time;durP1;ratioP1;P1;durP2;ratioP2;P2;SDS_P1;SDS_P2;PMS_P1;PMS_P2;Temp;Humidity;BMP_temperature;BMP_pressure;BME280_temperature;BME280_humidity;BME280_pressure;Samples;Min_cycle;Max_cycle;Signal;HPM_P1;HPM_P2
2024/01/13 00:00:50;;;;;;;22.20;12.47;;;;;;;-4.03;100.00;150346.31;4986441;28;20448;-83
2024/01/13 00:03:17;;;;;;;24.80;14.27;;;;;;;-4.06;100.00;150339.91;4990999;28;20779;-83
2024/01/13 00:05:45;;;;;;;21.50;11.80;;;;;;;-4.10;100.00;150328.44;4985219;28;20808;-83
2024/01/13 00:08:11;;;;;;;24.17;14.40;;;;;;;-4.09;100.00;150332.25;5004592;28;20453;-83
2024/01/13 00:10:38;;;;;;;31.60;13.57;;;;;;;-4.04;100.00;150345.03;5002477;28;20994;-83
2024/01/13 00:13:05;;;;;;;27.00;15.07;;;;;;;-4.02;100.00;150350.13;4967926;28;20428;-83
2024/01/13 00:15:32;;;;;;;26.20;14.43;;;;;;;-3.98;100.00;150360.38;4975882;28;20795;-85
2024/01/13 00:17:58;;;;;;;21.27;12.67;;;;;;;-3.99;100.00;150356.50;4961364;28;20452;-82
2024/01/13 00:20:25;;;;;;;28.83;13.93;;;;;;;-3.98;100.00;150360.38;4963263;28;20428;-84
2024/01/13 00:22:53;;;;;;;31.10;13.83;;;;;;;-3.99;100.00;150357.81;4967468;28;20829;-84
2024/01/13 00:25:19;;;;;;;27.10;13.57;;;;;;;-4.02;100.00;150350.13;5001443;28;20808;-84
2024/01/13 00:27:46;;;;;;;28.17;13.50;;;;;;;-4.04;100.00;150345.03;5002539;28;20445;-84
2024/01/13 00:30:15;;;;;;;35.50;15.80;;;;;;;-4.05;100.00;150342.44;4981723;28;20417;-82
2024/01/13 00:32:41;;;;;;;30.87;14.70;;;;;;;-4.04;100.00;150345.03;4991301;28;20408;-83
2024/01/13 00:35:08;;;;;;;28.20;16.57;;;;;;;-4.03;100.00;150347.59;4974293;28;20457;-84
2024/01/13 00:37:35;;;;;;;35.80;16.07;;;;;;;-4.04;100.00;150345.03;4985128;28;20817;-83
2024/01/13 00:40:04;;;;;;;37.67;15.63;;;;;;;-4.03;100.00;150347.59;4980774;28;20417;-82
2024/01/13 00:42:30;;;;;;;28.17;15.70;;;;;;;-4.06;100.00;150339.91;4984629;28;21601;-82
2024/01/13 00:44:57;;;;;;;34.50;16.63;;;;;;;-4.06;100.00;150338.63;4990130;28;20453;-83
2024/01/13 00:47:23;;;;;;;33.27;16.17;;;;;;;-4.09;100.00;150330.94;4988686;28;20419;-83
2024/01/13 00:49:50;;;;;;;32.87;16.87;;;;;;;-4.11;100.00;150327.13;4961340;28;20443;-83
2024/01/13 00:52:16;;;;;;;40.10;17.03;;;;;;;-4.10;100.00;150329.66;4984304;28;20465;-83
2024/01/13 00:54:44;;;;;;;36.00;15.93;;;;;;;-4.10;100.00;150329.66;4987892;28;20668;-83
2024/01/13 00:57:12;;;;;;;35.57;16.97;;;;;;;-4.07;100.00;150336.06;4987796;28;20421;-83
2024/01/13 00:59:38;;;;;;;32.37;16.03;;;;;;;-4.05;100.00;150342.44;4994177;28;20425;-83
2024/01/13 01:02:05;;;;;;;38.20;17.93;;;;;;;-4.02;100.00;150350.13;4998004;28;20894;-83
2024/01/13 01:04:31;;;;;;;26.47;15.57;;;;;;;-4.01;100.00;150352.69;5001452;28;20453;-83
2024/01/13 01:06:58;;;;;;;30.93;16.93;;;;;;;-4.00;100.00;150354.00;4964078;28;20545;-83
2024/01/13 01:09:25;;;;;;;39.07;16.60;;;;;;;-4.03;100.00;150347.59;5003601;28;20448;-83
2024/01/13 01:11:51;;;;;;;31.10;15.00;;;;;;;-4.03;100.00;150346.31;5000498;28;20991;-83
2024/01/13 01:14:19;;;;;;;25.33;14.90;;;;;;;-4.04;100.00;150345.03;4983483;28;20428;-83
2024/01/13 01:16:46;;;;;;;28.80;16.80;;;;;;;-4.04;100.00;150345.03;5001198;28;20486;-84
2024/01/13 01:19:12;;;;;;;32.57;15.57;;;;;;;-4.02;100.00;150348.84;4996058;28;20478;-84
2024/01/13 01:21:39;;;;;;;34.33;16.33;;;;;;;-4.06;100.00;150339.91;4986875;28;20451;-83
2024/01/13 01:24:05;;;;;;;25.90;15.00;;;;;;;-4.10;100.00;150329.66;4970792;28;20442;-83
2024/01/13 01:26:32;;;;;;;48.37;23.93;;;;;;;-4.11;100.00;150327.13;4997193;28;21113;-83
2024/01/13 01:28:59;;;;;;;40.77;20.90;;;;;;;-4.12;100.00;150324.56;4960697;28;20462;-84
2024/01/13 01:31:26;;;;;;;38.37;19.10;;;;;;;-4.07;100.00;150337.34;4955247;28;20915;-84
2024/01/13 01:33:53;;;;;;;37.40;17.97;;;;;;;-4.07;100.00;150337.34;4953248;28;20881;-84
2024/01/13 01:36:20;;;;;;;34.13;18.00;;;;;;;-4.07;100.00;150337.34;4961978;28;20446;-84
2024/01/13 01:38:46;;;;;;;30.33;15.60;;;;;;;-4.03;100.00;150347.59;4962542;28;20834;-84
2024/01/13 01:41:13;;;;;;;31.77;18.30;;;;;;;-4.01;100.00;150352.69;4985323;28;20412;-83
2024/01/13 01:43:40;;;;;;;37.73;17.33;;;;;;;-4.04;100.00;150345.03;5000855;28;20458;-84
2024/01/13 01:46:07;;;;;;;40.53;18.37;;;;;;;-3.98;100.00;150359.09;4972568;28;21000;-84
2024/01/13 01:48:38;;;;;;;40.87;18.03;;;;;;;-4.00;100.00;150355.28;5002954;28;20411;-85
2024/01/13 01:51:04;;;;;;;40.07;18.70;;;;;;;-4.04;100.00;150343.72;4980670;28;20431;-84
2024/01/13 01:53:32;;;;;;;43.23;19.40;;;;;;;-4.03;100.00;150346.31;4993542;28;20424;-84
2024/01/13 01:55:59;;;;;;;36.13;17.37;;;;;;;-4.01;100.00;150352.69;4992324;28;20451;-85
2024/01/13 01:58:25;;;;;;;36.27;20.17;;;;;;;-4.00;100.00;150355.28;4960835;28;20520;-84
2024/01/13 02:00:52;;;;;;;35.80;18.60;;;;;;;-4.00;100.00;150355.28;4982190;28;20428;-84
2024/01/13 02:03:19;;;;;;;30.03;17.50;;;;;;;-4.04;100.00;150343.72;4966558;28;20535;-83
2024/01/13 02:05:47;;;;;;;42.30;18.83;;;;;;;-4.06;100.00;150339.91;4979839;28;20456;-84
2024/01/13 02:08:14;;;;;;;32.17;18.20;;;;;;;-4.03;100.00;150347.59;4968674;28;20438;-84
2024/01/13 02:10:41;;;;;;;36.13;17.77;;;;;;;-4.01;100.00;150352.69;4992297;28;20424;-84
2024/01/13 02:13:07;;;;;;;37.07;16.40;;;;;;;-3.98;100.00;150359.09;4986028;28;20451;-84
2024/01/13 02:15:34;;;;;;;39.00;16.27;;;;;;;-3.98;100.00;150360.38;4967361;28;20949;-84
2024/01/13 02:18:00;;;;;;;34.60;18.50;;;;;;;-3.99;100.00;150357.81;4970843;28;20461;-84
2024/01/13 02:20:27;;;;;;;38.13;18.50;;;;;;;-3.99;100.00;150356.50;4976182;28;20863;-83
2024/01/13 02:22:54;;;;;;;35.67;20.30;;;;;;;-4.00;100.00;150355.28;4986395;28;20481;-85
2024/01/13 02:25:21;;;;;;;35.70;16.03;;;;;;;-4.01;100.00;150352.69;4967114;28;20850;-84
2024/01/13 02:27:47;;;;;;;43.83;17.00;;;;;;;-4.03;100.00;150346.31;4990347;28;20452;-85
2024/01/13 02:30:14;;;;;;;30.80;15.97;;;;;;;-4.07;100.00;150336.06;4998719;28;20470;-84
2024/01/13 02:32:40;;;;;;;37.97;17.53;;;;;;;-4.06;100.00;150339.91;5005216;28;20212;-84
2024/01/13 02:35:08;;;;;;;37.70;18.40;;;;;;;-4.06;100.00;150339.91;5005814;28;20484;-84
2024/01/13 02:37:34;;;;;;;32.47;18.17;;;;;;;-4.06;100.00;150339.91;4991951;28;20445;-84
2024/01/13 02:40:02;;;;;;;36.07;19.47;;;;;;;-4.06;100.00;150339.91;4970193;28;20779;-84
2024/01/13 02:42:29;;;;;;;37.67;19.40;;;;;;;-4.12;100.00;150324.56;4968563;28;20473;-83
2024/01/13 02:44:55;;;;;;;39.63;18.50;;;;;;;-4.12;100.00;150324.56;5003798;28;20522;-83
2024/01/13 02:47:30;;;;;;;40.77;19.17;;;;;;;-4.12;100.00;150324.56;4980404;28;20436;-83
2024/01/13 02:49:56;;;;;;;41.63;21.60;;;;;;;-4.11;100.00;150327.13;4981192;28;20417;-83
2024/01/13 02:52:23;;;;;;;35.77;17.70;;;;;;;-4.09;100.00;150332.25;4989748;28;20441;-84
2024/01/13 02:54:49;;;;;;;34.93;18.80;;;;;;;-4.08;100.00;150334.81;5002967;28;20461;-84
2024/01/13 02:57:17;;;;;;;33.70;18.03;;;;;;;-4.02;100.00;150350.13;4989606;28;20433;-84
2024/01/13 02:59:44;;;;;;;33.87;18.50;;;;;;;-4.01;100.00;150352.69;4999075;28;20815;-84
2024/01/13 03:02:10;;;;;;;37.67;18.00;;;;;;;-4.00;100.00;150354.00;5002472;28;20448;-84
2024/01/13 03:04:37;;;;;;;33.97;18.70;;;;;;;-4.01;100.00;150352.69;4972896;28;20430;-84
2024/01/13 03:07:04;;;;;;;37.97;18.90;;;;;;;-4.10;100.00;150329.66;4985474;28;20439;-85
2024/01/13 03:09:30;;;;;;;33.67;18.37;;;;;;;-4.18;100.00;150309.22;4985215;28;20428;-84
2024/01/13 03:11:57;;;;;;;34.63;18.37;;;;;;;-4.21;100.00;150300.28;4973561;28;20492;-85
2024/01/13 03:14:24;;;;;;;37.10;19.33;;;;;;;-4.16;100.00;150314.34;4970742;28;20433;-84
2024/01/13 03:16:51;;;;;;;39.07;19.63;;;;;;;-4.11;100.00;150327.13;4973695;28;20791;-84
2024/01/13 03:19:18;;;;;;;49.83;18.57;;;;;;;-4.06;100.00;150339.91;5003474;28;20454;-84
2024/01/13 03:21:45;;;;;;;35.90;16.73;;;;;;;-4.03;100.00;150347.59;4997261;28;20453;-84
2024/01/13 03:24:11;;;;;;;32.23;15.10;;;;;;;-4.01;100.00;150351.41;4987684;28;20479;-84
2024/01/13 03:26:38;;;;;;;36.03;16.20;;;;;;;-3.99;100.00;150357.81;4954539;28;20793;-84
2024/01/13 03:29:04;;;;;;;39.17;15.07;;;;;;;-3.98;100.00;150360.38;4996407;28;20428;-84
2024/01/13 03:31:32;;;;;;;36.00;17.60;;;;;;;-4.03;100.00;150347.59;4974364;28;20453;-84
2024/01/13 03:33:59;;;;;;;35.60;17.73;;;;;;;-4.03;100.00;150347.59;5004198;28;20443;-84
2024/01/13 03:36:25;;;;;;;31.60;15.27;;;;;;;-4.04;100.00;150343.72;4974085;28;20436;-84
2024/01/13 03:38:52;;;;;;;38.23;15.67;;;;;;;-4.07;100.00;150336.06;4988096;28;20956;-84
2024/01/13 03:41:19;;;;;;;36.80;17.53;;;;;;;-4.10;100.00;150329.66;4970742;28;20781;-84
2024/01/13 03:43:46;;;;;;;31.50;15.17;;;;;;;-4.18;100.00;150307.97;4978502;28;20561;-84
2024/01/13 03:46:14;;;;;;;32.90;15.30;;;;;;;-4.17;100.00;150311.78;5000375;28;20450;-84
2024/01/13 03:48:42;;;;;;;28.67;14.53;;;;;;;-4.17;100.00;150310.50;4988159;28;20490;-84
2024/01/13 03:51:09;;;;;;;29.90;16.33;;;;;;;-4.15;100.00;150315.59;4964048;28;20460;-84
2024/01/13 03:53:35;;;;;;;32.53;14.93;;;;;;;-4.10;100.00;150328.44;4970762;28;20408;-84
2024/01/13 03:56:04;;;;;;;36.10;18.07;;;;;;;-4.07;100.00;150336.06;4982882;28;20519;-84
2024/01/13 03:58:30;;;;;;;29.20;15.83;;;;;;;-4.07;100.00;150337.34;4965856;28;20435;-84
2024/01/13 04:00:57;;;;;;;34.90;16.00;;;;;;;-4.09;100.00;150332.25;4981228;28;20433;-84
2024/01/13 04:03:24;;;;;;;32.43;14.93;;;;;;;-4.08;100.00;150334.81;4953390;28;20989;-84
2024/01/13 04:05:52;;;;;;;31.57;14.10;;;;;;;-4.05;100.00;150342.44;5003213;28;21029;-84
2024/01/13 04:08:19;;;;;;;26.67;16.27;;;;;;;-4.01;100.00;150352.69;4986886;28;20836;-84
2024/01/13 04:10:46;;;;;;;32.17;16.50;;;;;;;-3.96;100.00;150365.47;4978371;28;20840;-84
2024/01/13 04:13:13;;;;;;;36.70;16.80;;;;;;;-4.01;100.00;150352.69;4962333;28;20461;-84
2024/01/13 04:15:39;;;;;;;29.47;17.03;;;;;;;-4.03;100.00;150347.59;4985387;28;20446;-84
2024/01/13 04:18:06;;;;;;;34.13;16.37;;;;;;;-4.04;100.00;150343.72;4964507;28;20463;-84
2024/01/13 04:20:33;;;;;;;38.27;21.40;;;;;;;-4.09;100.00;150332.25;4988541;28;20497;-84
2024/01/13 04:23:01;;;;;;;43.40;18.50;;;;;;;-4.09;100.00;150332.25;4980299;28;20522;-84
2024/01/13 04:25:27;;;;;;;39.20;18.90;;;;;;;-4.11;100.00;150325.84;5004839;28;20445;-84
2024/01/13 04:27:54;;;;;;;32.20;16.30;;;;;;;-4.12;100.00;150324.56;5001741;28;20458;-84
2024/01/13 04:30:21;;;;;;;27.03;14.67;;;;;;;-4.04;100.00;150345.03;4977755;28;20485;-82
2024/01/13 04:32:48;;;;;;;36.07;16.50;;;;;;;-4.12;100.00;150324.56;4974075;28;20862;-82
2024/01/13 04:35:14;;;;;;;33.37;16.50;;;;;;;-4.14;100.00;150319.47;5006631;28;20451;-83
2024/01/13 04:37:41;;;;;;;31.90;15.60;;;;;;;-4.13;100.00;150322.00;5002675;28;20556;-83
2024/01/13 04:40:09;;;;;;;33.80;14.60;;;;;;;-4.10;100.00;150328.44;4991347;28;20445;-82
2024/01/13 04:42:36;;;;;;;35.00;16.97;;;;;;;-4.09;100.00;150330.94;4989144;28;20484;-83
2024/01/13 04:45:03;;;;;;;35.10;16.50;;;;;;;-4.08;100.00;150333.53;5001533;28;20445;-83
2024/01/13 04:47:29;;;;;;;37.17;16.73;;;;;;;-4.09;100.00;150332.25;4987630;28;20543;-83
2024/01/13 04:49:56;;;;;;;38.63;20.17;;;;;;;-4.04;100.00;150343.72;4979090;28;20444;-83
2024/01/13 04:52:22;;;;;;;46.50;20.80;;;;;;;-4.14;100.00;150319.47;4968419;28;20420;-83
2024/01/13 04:54:49;;;;;;;46.53;20.40;;;;;;;-4.20;100.00;150304.09;4987804;28;20515;-83
2024/01/13 04:57:17;;;;;;;26.67;16.60;;;;;;;-4.20;100.00;150304.09;4989335;28;20498;-83
2024/01/13 04:59:53;;;;;;;35.70;18.80;;;;;;;-4.20;100.00;150302.81;5003977;28;20933;-83
2024/01/13 05:02:19;;;;;;;35.50;16.50;;;;;;;-4.25;100.00;150290.03;4963453;28;20457;-83
2024/01/13 05:04:46;;;;;;;38.27;18.93;;;;;;;-4.21;100.00;150301.59;4987371;28;20778;-83
2024/01/13 05:07:13;;;;;;;33.33;18.53;;;;;;;-4.15;100.00;150316.88;4986906;28;20490;-84
2024/01/13 05:09:40;;;;;;;36.77;19.87;;;;;;;-4.24;100.00;150293.91;4983911;28;20470;-83
2024/01/13 05:12:07;;;;;;;36.47;19.63;;;;;;;-4.35;100.00;150265.78;5000882;28;20445;-83
2024/01/13 05:14:35;;;;;;;34.17;18.73;;;;;;;-4.43;100.00;150246.63;4981307;28;20550;-84
2024/01/13 05:17:02;;;;;;;34.53;19.67;;;;;;;-4.45;100.00;150240.22;4999506;28;20451;-84
2024/01/13 05:19:29;;;;;;;30.80;17.17;;;;;;;-4.49;100.00;150229.97;4980979;28;20959;-84
2024/01/13 05:21:55;;;;;;;34.37;17.27;;;;;;;-4.48;100.00;150232.56;5001772;28;20445;-84
2024/01/13 05:24:23;;;;;;;34.10;17.53;;;;;;;-4.41;100.00;150250.44;4970533;28;20845;-84
2024/01/13 05:26:49;;;;;;;30.77;16.17;;;;;;;-4.37;100.00;150261.91;5001243;28;20837;-84
2024/01/13 05:29:16;;;;;;;36.33;16.23;;;;;;;-4.33;100.00;150272.16;5004180;28;21038;-83
2024/01/13 05:31:44;;;;;;;32.43;15.63;;;;;;;-4.29;100.00;150281.13;5000374;28;20824;-84
2024/01/13 05:34:11;;;;;;;38.57;15.80;;;;;;;-4.26;100.00;150287.50;4983904;28;20970;-84
2024/01/13 05:36:43;;;;;;;31.53;15.77;;;;;;;-4.21;100.00;150300.28;4985636;28;20440;-84
2024/01/13 05:39:10;;;;;;;27.10;14.33;;;;;;;-4.19;100.00;150306.69;4984362;28;20440;-83
2024/01/13 05:41:36;;;;;;;32.63;16.33;;;;;;;-4.20;100.00;150304.09;5001651;28;20791;-84
2024/01/13 05:44:03;;;;;;;35.63;14.37;;;;;;;-4.18;100.00;150309.22;4985725;28;20444;-83
2024/01/13 05:46:30;;;;;;;24.37;13.80;;;;;;;-4.17;100.00;150311.78;5002786;28;20501;-84
2024/01/13 05:49:01;;;;;;;32.23;16.00;;;;;;;-4.16;100.00;150314.34;5003857;28;20504;-84
2024/01/13 05:51:28;;;;;;;28.07;14.27;;;;;;;-4.15;100.00;150316.88;5001474;28;20539;-84
2024/01/13 05:53:54;;;;;;;34.77;13.53;;;;;;;-4.14;100.00;150319.47;4986047;28;20449;-84
2024/01/13 05:56:21;;;;;;;28.77;14.87;;;;;;;-4.10;100.00;150329.66;4985540;28;20439;-84
2024/01/13 05:58:48;;;;;;;28.27;13.43;;;;;;;-4.09;100.00;150330.94;4984519;28;20457;-84
2024/01/13 06:01:14;;;;;;;32.07;16.33;;;;;;;-4.10;100.00;150328.44;4998332;28;20477;-84
2024/01/13 06:03:44;;;;;;;33.10;14.80;;;;;;;-4.10;100.00;150329.66;4986079;28;20474;-83
2024/01/13 06:06:12;;;;;;;28.23;14.67;;;;;;;-4.08;100.00;150333.53;5000388;28;20437;-83
2024/01/13 06:08:38;;;;;;;29.43;14.07;;;;;;;-4.06;100.00;150338.63;5006302;28;20459;-84
2024/01/13 06:11:05;;;;;;;37.07;15.00;;;;;;;-4.03;100.00;150347.59;5005976;28;20494;-83
2024/01/13 06:13:31;;;;;;;28.70;14.27;;;;;;;-4.00;100.00;150354.00;4986565;28;20464;-84
2024/01/13 06:15:58;;;;;;;25.50;13.90;;;;;;;-3.98;100.00;150360.38;5005113;28;20487;-83
2024/01/13 06:18:25;;;;;;;29.80;13.70;;;;;;;-3.98;100.00;150359.09;5003024;28;20560;-83
2024/01/13 06:20:51;;;;;;;29.63;14.90;;;;;;;-4.01;100.00;150352.69;5003345;28;20623;-84
2024/01/13 06:23:19;;;;;;;26.63;12.50;;;;;;;-3.99;100.00;150356.50;5004511;28;21196;-83
2024/01/13 06:25:46;;;;;;;26.33;13.23;;;;;;;-3.95;100.00;150366.75;5003374;28;20469;-83
2024/01/13 06:28:12;;;;;;;27.47;13.83;;;;;;;-3.97;100.00;150361.66;5004007;28;20423;-83
2024/01/13 06:30:39;;;;;;;30.47;14.10;;;;;;;-3.99;100.00;150357.81;5002921;28;20465;-83
2024/01/13 06:33:06;;;;;;;28.03;13.67;;;;;;;-3.98;100.00;150360.38;5003922;28;21912;-83
2024/01/13 06:35:32;;;;;;;32.97;15.93;;;;;;;-3.97;100.00;150361.66;5002381;28;20946;-84
2024/01/13 06:37:59;;;;;;;34.60;15.80;;;;;;;-3.98;100.00;150359.09;4998759;28;20468;-83
2024/01/13 06:40:27;;;;;;;26.47;13.20;;;;;;;-4.03;100.00;150347.59;4968359;28;20458;-83
2024/01/13 06:42:53;;;;;;;29.00;16.93;;;;;;;-4.03;100.00;150346.31;5003972;28;21095;-84
2024/01/13 06:45:20;;;;;;;26.63;12.97;;;;;;;-4.03;100.00;150346.31;5002679;28;20451;-84
2024/01/13 06:47:46;;;;;;;31.67;14.67;;;;;;;-3.99;100.00;150356.50;4987248;28;20823;-84
2024/01/13 06:50:13;;;;;;;34.67;15.77;;;;;;;-3.95;100.00;150368.06;4986796;28;20521;-83
2024/01/13 06:52:39;;;;;;;39.47;15.67;;;;;;;-3.97;100.00;150361.66;5003584;28;20668;-83
2024/01/13 06:55:08;;;;;;;39.30;15.67;;;;;;;-3.99;100.00;150357.81;4987373;28;20571;-84
2024/01/13 06:57:35;;;;;;;31.47;16.03;;;;;;;-3.99;100.00;150357.81;4986327;28;20508;-84
2024/01/13 07:00:07;;;;;;;32.47;15.40;;;;;;;-3.98;100.00;150359.09;5003311;28;20416;-83
2024/01/13 07:02:32;;;;;;;33.83;15.87;;;;;;;-3.96;100.00;150365.47;4986322;28;20807;-85
2024/01/13 07:05:01;;;;;;;33.17;17.03;;;;;;;-3.95;100.00;150368.06;5001261;28;20473;-84
2024/01/13 07:07:27;;;;;;;37.73;18.57;;;;;;;-3.94;100.00;150370.56;4987189;28;20767;-84
2024/01/13 07:09:54;;;;;;;45.27;18.00;;;;;;;-3.94;100.00;150370.56;5002694;28;20435;-84
2024/01/13 07:12:20;;;;;;;33.20;16.67;;;;;;;-3.95;100.00;150368.06;5002516;28;20898;-84
2024/01/13 07:14:48;;;;;;;33.77;16.67;;;;;;;-3.95;100.00;150368.06;4969725;28;20430;-84
2024/01/13 07:17:15;;;;;;;34.00;16.37;;;;;;;-3.93;100.00;150373.16;4970427;28;20486;-84
2024/01/13 07:19:42;;;;;;;27.53;15.27;;;;;;;-3.94;100.00;150370.56;5002881;28;20440;-83
2024/01/13 07:22:09;;;;;;;35.00;15.40;;;;;;;-3.92;100.00;150375.69;4969453;28;20914;-83
2024/01/13 07:24:35;;;;;;;25.27;14.10;;;;;;;-3.91;100.00;150378.25;5002760;28;20451;-83
2024/01/13 07:27:03;;;;;;;28.10;14.53;;;;;;;-3.92;100.00;150374.44;4986405;28;20445;-83
2024/01/13 07:29:29;;;;;;;34.27;17.10;;;;;;;-3.95;100.00;150366.75;5001331;28;20972;-83
2024/01/13 07:31:57;;;;;;;22.10;13.50;;;;;;;-3.94;100.00;150370.56;5002754;28;20454;-83
2024/01/13 07:34:24;;;;;;;24.57;12.97;;;;;;;-3.93;100.00;150373.16;5001596;28;20759;-83
2024/01/13 07:36:51;;;;;;;26.30;13.13;;;;;;;-3.93;100.00;150371.88;4999323;28;20462;-83
2024/01/13 07:39:17;;;;;;;29.00;13.70;;;;;;;-3.94;100.00;150370.56;4986388;28;20843;-83
2024/01/13 07:41:44;;;;;;;28.87;13.60;;;;;;;-3.94;100.00;150370.56;5000039;28;20457;-83
2024/01/13 07:44:11;;;;;;;23.30;13.90;;;;;;;-3.97;100.00;150362.91;5000069;28;20476;-83
2024/01/13 07:46:41;;;;;;;28.03;12.87;;;;;;;-3.98;100.00;150360.38;4969294;28;20531;-83
2024/01/13 07:49:08;;;;;;;27.80;14.77;;;;;;;-3.99;100.00;150357.81;5002627;28;20528;-83
2024/01/13 07:51:36;;;;;;;26.87;13.80;;;;;;;-3.99;100.00;150357.81;4969962;28;20436;-83
2024/01/13 07:54:02;;;;;;;31.43;13.43;;;;;;;-4.00;100.00;150354.00;5001623;28;20453;-85
2024/01/13 07:56:29;;;;;;;30.03;14.47;;;;;;;-3.99;100.00;150357.81;4984287;28;20470;-83
2024/01/13 07:58:56;;;;;;;33.27;15.77;;;;;;;-3.98;100.00;150360.38;5002067;28;20430;-83
2024/01/13 08:01:22;;;;;;;27.43;14.17;;;;;;;-3.94;100.00;150370.56;4996912;28;20814;-85
2024/01/13 08:03:49;;;;;;;25.00;14.30;;;;;;;-3.91;100.00;150376.97;4985449;28;20451;-83
2024/01/13 08:06:17;;;;;;;27.47;13.17;;;;;;;-3.92;100.00;150375.69;5001469;28;20466;-84
2024/01/13 08:08:44;;;;;;;27.70;14.60;;;;;;;-3.96;100.00;150365.47;5002978;28;20429;-84
2024/01/13 08:11:10;;;;;;;27.57;13.83;;;;;;;-3.98;100.00;150360.38;5002922;28;20462;-85
2024/01/13 08:13:37;;;;;;;25.30;13.20;;;;;;;-3.99;100.00;150357.81;5003934;28;20413;-84
2024/01/13 08:16:04;;;;;;;23.53;11.97;;;;;;;-3.95;100.00;150366.75;4968069;28;20454;-84
2024/01/13 08:18:31;;;;;;;24.57;14.03;;;;;;;-4.00;100.00;150355.28;4986047;28;20430;-84
2024/01/13 08:20:57;;;;;;;24.57;11.80;;;;;;;-3.98;100.00;150360.38;5003519;28;20443;-84
2024/01/13 08:23:25;;;;;;;27.87;11.37;;;;;;;-4.01;100.00;150351.41;5001256;28;20436;-85
2024/01/13 08:25:52;;;;;;;22.70;10.77;;;;;;;-4.00;100.00;150355.28;4979922;28;21125;-82
2024/01/13 08:28:18;;;;;;;25.87;10.70;;;;;;;-4.02;100.00;150350.13;4968063;28;20473;-83
2024/01/13 08:30:45;;;;;;;17.83;10.97;;;;;;;-4.01;100.00;150352.69;5001514;28;20432;-83
2024/01/13 08:33:12;;;;;;;26.33;10.70;;;;;;;-4.03;100.00;150347.59;5002207;28;20457;-83
2024/01/13 08:35:39;;;;;;;21.57;10.20;;;;;;;-4.01;100.00;150352.69;5001801;28;20436;-83
2024/01/13 08:38:06;;;;;;;23.60;10.90;;;;;;;-3.96;100.00;150364.19;4998254;28;20479;-83
2024/01/13 08:40:34;;;;;;;19.93;11.97;;;;;;;-3.95;100.00;150368.06;4983651;28;20441;-83
2024/01/13 08:43:02;;;;;;;21.60;10.60;;;;;;;-3.91;100.00;150376.97;5000395;28;20438;-82
2024/01/13 08:45:30;;;;;;;18.80;11.70;;;;;;;-3.90;100.00;150380.84;4998007;28;20451;-82
2024/01/13 08:47:57;;;;;;;24.30;11.90;;;;;;;-3.90;100.00;150379.53;4996425;28;20508;-84
2024/01/13 08:50:23;;;;;;;18.40;10.17;;;;;;;-3.85;100.00;150393.63;4995276;28;20428;-84
2024/01/13 08:52:54;;;;;;;31.50;11.77;;;;;;;-3.85;100.00;150393.63;4996104;28;20477;-84
2024/01/13 08:55:20;;;;;;;25.60;12.53;;;;;;;-3.82;100.00;150400.00;5000640;28;20515;-84
2024/01/13 08:57:48;;;;;;;20.50;11.50;;;;;;;-3.82;100.00;150401.28;4980193;28;21240;-84
2024/01/13 09:00:16;;;;;;;28.33;12.00;;;;;;;-3.82;100.00;150401.28;4979611;28;20428;-84
2024/01/13 09:02:43;;;;;;;23.93;12.47;;;;;;;-3.78;100.00;150411.50;4985356;28;20819;-84
2024/01/13 09:05:10;;;;;;;30.67;12.67;;;;;;;-3.78;100.00;150411.50;4960742;28;20453;-84
2024/01/13 09:07:38;;;;;;;27.70;11.37;;;;;;;-3.75;100.00;150419.19;5002432;28;20996;-84
2024/01/13 09:10:06;;;;;;;24.03;12.47;;;;;;;-3.74;100.00;150420.47;4981873;28;20424;-84
2024/01/13 09:12:33;;;;;;;25.20;12.27;;;;;;;-3.77;100.00;150414.06;4985317;28;20568;-83
2024/01/13 09:15:00;;;;;;;22.40;11.00;;;;;;;-3.73;100.00;150423.00;4975342;28;20540;-84
2024/01/13 09:17:27;;;;;;;15.60;10.80;;;;;;;-3.69;100.00;150433.25;5001036;28;20492;-84
2024/01/13 09:19:54;;;;;;;26.07;12.93;;;;;;;-3.66;100.00;150439.66;4983299;28;20416;-84
2024/01/13 09:22:20;;;;;;;23.27;11.00;;;;;;;-3.65;100.00;150442.22;4998113;28;20523;-84
2024/01/13 09:24:48;;;;;;;23.20;11.57;;;;;;;-3.64;100.00;150444.75;4983092;28;20563;-84
2024/01/13 09:27:16;;;;;;;23.50;12.97;;;;;;;-3.63;100.00;150448.63;4984295;28;20465;-84
2024/01/13 09:29:43;;;;;;;25.83;11.27;;;;;;;-3.60;100.00;150456.25;4984069;28;20429;-84
2024/01/13 09:32:11;;;;;;;20.00;10.93;;;;;;;-3.59;100.00;150458.81;4998192;28;20561;-84
2024/01/13 09:34:37;;;;;;;22.30;11.00;;;;;;;-3.56;100.00;150465.22;5000267;28;20876;-84
2024/01/13 09:37:04;;;;;;;20.37;10.87;;;;;;;-3.54;100.00;150470.31;4986759;28;20484;-84
2024/01/13 09:39:31;;;;;;;21.53;11.17;;;;;;;-3.57;100.00;150462.69;4987997;28;20449;-84
2024/01/13 09:41:59;;;;;;;19.20;10.87;;;;;;;-3.55;100.00;150467.78;5001287;28;20437;-84
2024/01/13 09:44:26;;;;;;;23.00;12.07;;;;;;;-3.53;100.00;150472.91;4968293;28;20497;-84
2024/01/13 09:46:54;;;;;;;19.23;11.70;;;;;;;-3.50;100.00;150480.56;4986198;28;20488;-84
2024/01/13 09:49:24;;;;;;;20.50;11.07;;;;;;;-3.49;100.00;150484.38;4987527;28;20432;-84
2024/01/13 09:51:52;;;;;;;26.30;12.50;;;;;;;-3.47;100.00;150489.53;4988227;28;20485;-84
2024/01/13 09:54:23;;;;;;;24.40;10.40;;;;;;;-3.45;100.00;150493.38;5004729;28;20458;-84
2024/01/13 09:56:51;;;;;;;19.73;11.23;;;;;;;-3.45;100.00;150494.66;5000561;28;20431;-84
2024/01/13 09:59:18;;;;;;;21.53;10.50;;;;;;;-3.43;100.00;150499.75;4982174;28;20657;-84
2024/01/13 10:01:45;;;;;;;17.47;10.70;;;;;;;-3.39;100.00;150508.72;4988960;28;20468;-84
2024/01/13 10:04:14;;;;;;;20.87;11.40;;;;;;;-3.40;100.00;150507.44;4987210;28;20488;-84
2024/01/13 10:06:43;;;;;;;27.23;11.10;;;;;;;-3.36;100.00;150516.41;5004134;28;20509;-83
2024/01/13 10:09:18;;;;;;;19.53;9.67;;;;;;;-3.33;100.00;150524.03;5002344;28;20450;-84
2024/01/13 10:11:45;;;;;;;16.60;8.77;;;;;;;-3.30;100.00;150531.72;4999014;28;20476;-85
2024/01/13 10:14:17;;;;;;;13.27;8.10;;;;;;;-3.29;100.00;150535.59;5000668;28;20766;-84
2024/01/13 10:16:43;;;;;;;14.40;7.60;;;;;;;-3.26;100.00;150541.97;4999370;28;21025;-84
2024/01/13 10:19:16;;;;;;;9.30;6.90;;;;;;;-3.26;100.00;150543.28;5001843;28;20420;-84
2024/01/13 10:22:02;;;;;;;9.00;6.30;;;;;;;-3.23;100.00;150549.66;5011298;23;20480;-83
2024/01/13 10:27:21;;;;;;;10.47;4.53;;;;;;;-3.16;100.00;150567.56;4952012;28;20517;-84
2024/01/13 10:29:48;;;;;;;8.60;6.10;;;;;;;-3.17;100.00;150565.00;5009896;28;20519;-84
2024/01/13 10:32:16;;;;;;;10.03;5.50;;;;;;;-3.16;100.00;150567.56;5015984;28;20460;-83
2024/01/13 10:34:46;;;;;;;9.93;5.73;;;;;;;-3.13;100.00;150575.25;4996424;28;20783;-79
2024/01/13 10:37:44;;;;;;;12.20;7.10;;;;;;;-3.13;100.00;150575.25;5008307;28;20461;-79
2024/01/13 10:40:11;;;;;;;12.63;7.57;;;;;;;-3.14;100.00;150572.66;4986636;23;20482;-78
2024/01/13 10:42:39;;;;;;;10.10;5.60;;;;;;;-3.16;100.00;150567.56;4940757;28;20544;-78
2024/01/13 10:45:09;;;;;;;10.33;6.30;;;;;;;-3.14;100.00;150572.66;4978731;28;20488;-78
2024/01/13 10:47:42;;;;;;;12.60;6.67;;;;;;;-3.16;100.00;150568.84;4978494;28;20537;-78
2024/01/13 10:50:10;;;;;;;15.23;7.50;;;;;;;-3.15;100.00;150570.13;4956495;28;20454;-78
2024/01/13 10:52:53;;;;;;;8.53;6.40;;;;;;;-3.18;100.00;150562.47;4961532;28;20454;-78
2024/01/13 10:55:20;;;;;;;13.03;6.97;;;;;;;-3.18;100.00;150563.69;4969218;28;20536;-79
2024/01/13 10:57:47;;;;;;;11.97;6.90;;;;;;;-3.14;100.00;150573.97;4956319;28;20462;-80
2024/01/13 11:00:14;;;;;;;14.10;7.20;;;;;;;-3.17;100.00;150566.28;4991928;28;20830;-79
2024/01/13 11:02:41;;;;;;;11.33;7.10;;;;;;;-3.12;100.00;150577.78;4967286;28;20524;-78
2024/01/13 11:05:08;;;;;;;16.10;8.30;;;;;;;-3.10;100.00;150582.94;4982461;28;20513;-79